NCAR-RAP Real-Time Weather Data

Output produced by METARs form (17 October 2018  16:35 UTC)
found at http://weather.rap.ucar.edu/surface/
 
ROMY 171100Z 03003KT 010V070 9999 -SHRA SCT013 BKN060 23/22 Q1011
ROMY 171000Z 03003KT 9999 -SHRA BKN013 BKN050 24/22 Q1010
ROMY 170900Z 04006KT 9999 SCT015 BKN060 24/22 Q1009
ROMY 170800Z 03006KT 360V060 9999 SCT015 BKN050 24/22 Q1009
ROMY 170700Z 03007KT 360V060 9999 FEW013 SCT035 BKN060 24/22 Q1009
ROMY 170600Z 03008KT 9999 FEW013 BKN070 24/22 Q1009
ROMY 170500Z 03009KT 8000 -SHRA FEW015 SCT020 BKN050 24/22 Q1009
ROMY 170400Z 03009KT 8000 -SHRA FEW007 SCT010 BKN020 23/22 Q1010
ROMY 170300Z 01008KT 320V040 3500 R22/1800U SHRA BR FEW004 BKN008 BKN012 23/22 Q1011
ROMY 170243Z 02005KT 350V100 2500 R22/0800VP1800D +SHRA BR SCT005 BKN008 BKN012 23/22 Q1011 RMK 3ST005 5ST008 6CU012 A2986
ROMY 170237Z 01005KT 350V050 4500 -SHRA BR SCT005 BKN008 24/23 Q1011 RMK 3ST005 6ST008 A2986
ROMY 170216Z 34005KT 300V040 4500 R22/1300VP1800D -SHRA BR FEW005 SCT007 BKN010 24/23 Q1011 RMK 2ST005 3ST007 5CU010 A2987
ROMY 170200Z 01003KT 340V060 9999 -SHRA FEW005 SCT009 BKN013 24/23 Q1011
ROMY 170100Z 02002KT 9999 -SHRA FEW007 SCT020 BKN050 23/22 Q1011
ROMY 170022Z 05002KT 5000 -SHRA BR FEW010 BKN015 FEW020CB BKN040 23/22 Q1011 RMK 1CU010 5CU015 1CB020 7SC040 A2987 CB 15KM N MOV NE
ROMY 170000Z 00000KT 4500 R22/1000VP1800D TSRA BR FEW004 SCT010 FEW020CB BKN060 23/22 Q1011
ROMY 162338Z VRB02KT 9999 -TSRA FEW004 SCT010 FEW020CB BKN060 23/22 Q1011 RMK 1ST004 3CU010 1CB020 6SC060 A2987 FBL TS 20KM NW MOV NE
ROMY 162300Z 05004KT 9999 VCSH FEW005 SCT010 BKN060 23/23 Q1010
ROMY 162226Z 06005KT 020V080 9000 -SHRA FEW010 SCT020 FEW025CB BKN040 23/23 Q1010 RMK 1CU010 3CU020 1CB025 6SC040 A2984 CB 10KM E MOV E
ROMY 162200Z 00000KT 4000 SHRA BR FEW010 SCT020 FEW025CB BKN040 23/23 Q1011
ROMY 162130Z 01001KT 5000 -RA BR FEW007 SCT040 BKN060 23/23 Q1011
ROMY 161124Z 11002KT 5000 -SHRA FEW005 BKN015 FEW020CB BKN031 23/23 Q1011 RMK 1ST005 5CU015 1CB020 7CU031 A2987 CB 10KM NE MOV SE
ROMY 161100Z 07004KT 4000 TSRA FEW005 BKN011 FEW020CB BKN035 23/23 Q1011
ROMY 161032Z 01005KT 330V040 4000 TSRA BR FEW009 BKN013 FEW020CB BKN035 24/23 Q1011 RMK 1CU009 5CU013 2CB020 7SC035 A2986 FBL TS 10KM W MOV SE
ROMY 161027Z 02005KT 330V040 4000 SHRA BR FEW009 BKN013 FEW020TCU BKN035 24/23 Q1010 RMK 1CU009 5CU013 1TCU020 7SC035 A2985 TCU 8KM W-NE MOV SE
ROMY 161012Z 35004KT 320V030 3000 +SHRA BR FEW008 BKN015 FEW020TCU BKN035 24/23 Q1010 RMK 2ST008 5CU015 1TCU020 7SC035 A2984 TCU 10KM W-NE MOV SE
ROMY 161000Z 01003KT 330V030 9000 -RA SCT012 BKN035 BKN080 25/23 Q1010
ROMY 160900Z 12004KT 080V160 9999 FEW012 BKN080 25/23 Q1010
ROMY 160800Z 15004KT 9999 VCSH FEW010 SCT018 BKN090 25/23 Q1010
ROMY 160700Z 08004KT 060V120 9999 VCSH FEW013 SCT018 BKN050 25/23 Q1010
ROMY 160600Z 11003KT 050V160 9999 -SHRA FEW010 BKN016 25/23 Q1010
ROMY 160500Z VRB02KT 9999 VCSH FEW012 BKN018 26/23 Q1010
ROMY 160400Z 05006KT 9999 SCT019 26/22 Q1010
ROMY 160300Z VRB04KT 9999 SCT017 28/23 Q1011
ROMY 160200Z 08007KT 050V110 9999 SCT014 27/23 Q1012
ROMY 160100Z 05005KT 010V090 9999 SCT013 SCT130 27/23 Q1012
ROMY 160000Z 06006KT 9999 SCT010 SCT110 26/23 Q1013
ROMY 152300Z 05003KT 020V080 9999 FEW010 BKN110 25/23 Q1012
ROMY 152200Z 06004KT 9999 FEW010 BKN140 23/23 Q1012
ROMY 152130Z 05002KT 9999 FEW010 SCT120 BKN150 23/22 Q1011
ROMY 151100Z 06009KT 9999 FEW011 SCT030 BKN050 24/23 Q1012
ROMY 151000Z 05007KT 9999 VCSH FEW010 SCT023 BKN045 24/23 Q1012
ROMY 150900Z 05006KT 8000 -SHRA FEW008 SCT014 BKN040 24/23 Q1012
ROMY 150814Z 05008KT 4000 -SHRA BR FEW007 BKN012 BKN035 24/23 Q1012 RMK 2ST007 5CU012 7SC035 A2989
ROMY 150800Z 05007KT 8000 -SHRA FEW008 SCT012 BKN038 24/23 Q1012
ROMY 150700Z 06009KT 9999 SCT010 BKN037 25/23 Q1011
ROMY 150600Z 05009KT 9999 FEW008 BKN016 BKN040 25/23 Q1011
ROMY 150500Z 06011KT 9999 VCSH FEW009 SCT015 BKN050 26/23 Q1011